Time;durP1;ratioP1;P1;durP2;ratioP2;P2;SDS_P1;SDS_P2;PMS_P1;PMS_P2;Temp;Humidity;BMP_temperature;BMP_pressure;BME280_temperature;BME280_humidity;BME280_pressure;Samples;Min_cycle;Max_cycle;Signal;HPM_P1;HPM_P2
2023/03/22 00:02:24;;;;;;;10.50;7.03;;;7.20;99.90;;;;;;5073839;28;20203;-77
2023/03/22 00:04:53;;;;;;;8.77;6.87;;;7.10;99.90;;;;;;5074233;28;20200;-76
2023/03/22 00:07:21;;;;;;;9.47;7.10;;;7.10;99.90;;;;;;5068093;28;20217;-77
2023/03/22 00:09:49;;;;;;;10.17;7.80;;;7.10;99.90;;;;;;5073671;28;20645;-78
2023/03/22 00:12:20;;;;;;;8.33;6.97;;;7.10;99.90;;;;;;5073563;28;20243;-76
2023/03/22 00:14:48;;;;;;;10.13;6.80;;;7.10;99.90;;;;;;5072370;28;20282;-75
2023/03/22 00:17:17;;;;;;;12.13;7.23;;;7.10;99.90;;;;;;5073743;28;20691;-74
2023/03/22 00:19:45;;;;;;;8.53;6.77;;;7.10;99.90;;;;;;5073978;28;20303;-77
2023/03/22 00:22:15;;;;;;;8.83;6.43;;;7.10;99.90;;;;;;5073441;28;20684;-76
2023/03/22 00:24:43;;;;;;;9.10;6.70;;;7.10;99.90;;;;;;5071865;28;20215;-75
2023/03/22 00:27:11;;;;;;;9.00;7.07;;;7.10;99.90;;;;;;5073549;28;20645;-78
2023/03/22 00:29:41;;;;;;;10.40;7.20;;;7.10;99.90;;;;;;5073812;28;20211;-77
2023/03/22 00:32:09;;;;;;;8.37;6.80;;;7.10;99.90;;;;;;5066177;28;20633;-77
2023/03/22 00:34:38;;;;;;;7.47;6.67;;;7.20;99.90;;;;;;5053341;28;20666;-78
2023/03/22 00:37:07;;;;;;;8.53;6.67;;;7.20;99.90;;;;;;5053384;28;20216;-76
2023/03/22 00:39:35;;;;;;;8.03;6.47;;;7.20;99.90;;;;;;5053674;28;20283;-75
2023/03/22 00:42:04;;;;;;;11.43;6.83;;;7.30;99.90;;;;;;5061720;28;20722;-77
2023/03/22 00:44:32;;;;;;;9.83;7.23;;;7.30;99.90;;;;;;5073757;28;20208;-77
2023/03/22 00:47:02;;;;;;;10.03;6.43;;;7.30;99.90;;;;;;5073362;28;20411;-77
2023/03/22 00:49:31;;;;;;;10.00;6.97;;;7.40;99.90;;;;;;5073506;28;20416;-77
2023/03/22 00:51:59;;;;;;;9.60;6.40;;;7.50;99.90;;;;;;5071466;28;20299;-77
2023/03/22 00:54:27;;;;;;;8.50;6.33;;;7.50;99.90;;;;;;5074280;28;20219;-76
2023/03/22 00:56:55;;;;;;;9.47;7.00;;;7.50;99.90;;;;;;5073393;28;20239;-78
2023/03/22 00:59:23;;;;;;;12.83;7.13;;;7.60;99.90;;;;;;5023236;28;1428801;-75
2023/03/22 01:01:52;;;;;;;9.77;6.60;;;7.60;99.90;;;;;;5071655;28;20207;-77
2023/03/22 01:04:24;;;;;;;8.00;6.87;;;7.60;99.90;;;;;;5074357;28;20298;-77
2023/03/22 01:06:58;;;;;;;6.80;6.10;;;7.70;99.90;;;;;;5054500;28;20196;-78
2023/03/22 01:09:29;;;;;;;7.93;6.73;;;7.70;99.90;;;;;;5063412;28;20290;-77
2023/03/22 01:11:59;;;;;;;8.70;6.63;;;7.70;99.90;;;;;;5074170;28;20214;-79
2023/03/22 01:14:30;;;;;;;8.57;6.40;;;7.70;99.90;;;;;;5074436;28;20203;-76
2023/03/22 01:16:58;;;;;;;7.97;6.47;;;7.80;99.90;;;;;;5072716;28;20279;-77
2023/03/22 01:19:28;;;;;;;8.37;6.93;;;7.80;99.90;;;;;;5033555;28;20245;-77
2023/03/22 01:21:56;;;;;;;7.77;6.60;;;7.80;99.90;;;;;;5033648;28;20236;-78
2023/03/22 01:24:25;;;;;;;7.10;6.27;;;7.90;99.90;;;;;;5033676;28;20209;-77
2023/03/22 01:26:53;;;;;;;9.47;6.93;;;7.90;99.90;;;;;;5064218;28;20235;-77
2023/03/22 01:29:21;;;;;;;9.57;7.03;;;7.90;99.90;;;;;;5073871;28;20203;-78
2023/03/22 01:31:50;;;;;;;11.10;6.57;;;8.00;99.90;;;;;;5073666;28;20206;-76
2023/03/22 01:34:18;;;;;;;8.53;6.43;;;8.00;99.90;;;;;;5073464;28;20214;-76
2023/03/22 01:36:49;;;;;;;7.57;6.57;;;8.00;99.90;;;;;;5053250;28;20218;-78
2023/03/22 01:39:17;;;;;;;10.20;6.73;;;8.00;99.90;;;;;;5053242;28;20266;-76
2023/03/22 01:41:45;;;;;;;10.67;6.57;;;8.00;99.90;;;;;;5053323;28;20212;-78
2023/03/22 01:44:16;;;;;;;8.20;6.40;;;8.10;99.90;;;;;;5052308;28;20214;-77
2023/03/22 01:46:45;;;;;;;7.93;6.00;;;8.10;99.90;;;;;;5067145;28;20222;-78
2023/03/22 01:49:16;;;;;;;7.00;5.83;;;8.10;99.90;;;;;;5073159;28;20212;-77
2023/03/22 01:51:48;;;;;;;8.77;6.77;;;8.10;99.90;;;;;;5073133;28;20192;-76
2023/03/22 01:54:23;;;;;;;8.00;6.27;;;8.10;99.90;;;;;;5071511;28;20683;-77
2023/03/22 01:56:51;;;;;;;7.07;5.87;;;8.10;99.90;;;;;;5073276;28;20191;-77
2023/03/22 01:59:20;;;;;;;7.63;5.97;;;8.10;99.90;;;;;;5072717;28;20337;-78
2023/03/22 02:01:48;;;;;;;7.00;6.30;;;8.20;99.90;;;;;;5073115;28;20230;-78
2023/03/22 02:04:19;;;;;;;9.13;6.30;;;8.10;99.90;;;;;;5060735;28;20621;-78
2023/03/22 02:06:48;;;;;;;9.03;6.77;;;8.10;99.90;;;;;;5052944;28;20321;-78
2023/03/22 02:09:20;;;;;;;7.33;6.03;;;8.10;99.90;;;;;;5053076;28;20211;-75
2023/03/22 02:11:54;;;;;;;9.17;6.80;;;8.20;99.90;;;;;;5052403;28;20270;-77
2023/03/22 02:14:46;;;;;;;8.40;6.00;;;8.20;99.90;;;;;;5052155;28;20232;-78
2023/03/22 02:17:27;;;;;;;8.30;6.00;;;8.20;99.90;;;;;;5052895;28;20192;-78
2023/03/22 02:20:41;;;;;;;7.97;6.00;;;8.20;99.90;;;;;;5060069;28;20243;-76
2023/03/22 02:23:42;;;;;;;9.03;5.90;;;8.20;99.90;;;;;;5072321;28;20221;-77
2023/03/22 02:26:38;;;;;;;7.40;6.27;;;8.10;99.90;;;;;;5073068;28;20199;-75
2023/03/22 02:29:11;;;;;;;9.20;6.80;;;8.20;99.90;;;;;;5068703;28;20337;-77
2023/03/22 02:31:54;;;;;;;7.70;5.83;;;8.20;99.90;;;;;;5072411;28;20192;-77
2023/03/22 02:34:44;;;;;;;7.83;6.27;;;8.20;99.90;;;;;;5072418;28;20301;-76
2023/03/22 02:37:41;;;;;;;10.50;6.37;;;8.20;99.90;;;;;;5070964;28;20230;-77
2023/03/22 02:40:16;;;;;;;7.63;6.27;;;8.20;99.90;;;;;;5072041;28;20827;-76
2023/03/22 02:42:55;;;;;;;9.07;5.97;;;8.20;99.90;;;;;;5072418;28;20195;-78
2023/03/22 02:45:30;;;;;;;6.70;5.90;;;8.20;99.90;;;;;;5052553;28;20214;-78
2023/03/22 02:48:05;;;;;;;7.60;6.40;;;8.30;99.90;;;;;;5072519;28;20188;-77
2023/03/22 02:50:40;;;;;;;9.90;6.27;;;8.30;99.90;;;;;;5072134;28;20257;-77
2023/03/22 02:53:17;;;;;;;8.83;5.93;;;8.30;99.90;;;;;;5069885;28;20201;-76
2023/03/22 02:55:54;;;;;;;9.07;6.33;;;8.30;99.90;;;;;;5072153;28;20209;-77
2023/03/22 02:58:26;;;;;;;8.40;6.00;;;8.30;99.90;;;;;;5072132;28;20195;-77
2023/03/22 03:00:58;;;;;;;7.23;5.80;;;8.20;99.90;;;;;;5071081;28;20273;-77
2023/03/22 03:03:29;;;;;;;6.90;6.13;;;8.20;99.90;;;;;;5046589;28;20208;-76
2023/03/22 03:06:01;;;;;;;8.80;6.47;;;8.20;99.90;;;;;;5051805;28;20583;-78
2023/03/22 03:08:30;;;;;;;8.47;6.30;;;8.20;99.90;;;;;;5051808;28;20219;-77
2023/03/22 03:11:00;;;;;;;8.60;6.37;;;8.20;99.90;;;;;;5051557;28;20676;-77
2023/03/22 03:13:28;;;;;;;7.73;5.53;;;8.20;99.90;;;;;;5051628;28;20209;-77
2023/03/22 03:15:59;;;;;;;7.23;5.93;;;8.20;99.90;;;;;;5051837;28;20220;-75
2023/03/22 03:18:39;;;;;;;8.03;6.40;;;8.10;99.90;;;;;;5055150;28;20325;-76
2023/03/22 03:21:21;;;;;;;8.20;5.73;;;8.10;99.90;;;;;;5054999;28;20231;-76
2023/03/22 03:23:56;;;;;;;8.27;6.20;;;8.10;99.90;;;;;;5071656;28;20312;-78
2023/03/22 03:26:32;;;;;;;8.50;6.20;;;8.20;99.90;;;;;;5070078;28;20219;-78
2023/03/22 03:29:03;;;;;;;6.37;5.60;;;8.20;99.90;;;;;;5059930;28;20216;-78
2023/03/22 03:31:36;;;;;;;6.47;5.80;;;8.20;99.90;;;;;;5031703;28;20651;-77
2023/03/22 03:34:13;;;;;;;7.00;5.67;;;8.20;99.90;;;;;;5031130;28;20220;-76
2023/03/22 03:36:49;;;;;;;6.63;5.87;;;8.20;99.90;;;;;;5044613;28;20234;-76
2023/03/22 03:39:21;;;;;;;8.53;6.20;;;8.30;99.90;;;;;;5051491;28;20258;-76
2023/03/22 03:41:53;;;;;;;7.00;5.80;;;8.20;99.90;;;;;;5051091;28;20581;-78
2023/03/22 03:44:21;;;;;;;6.30;5.60;;;8.20;99.90;;;;;;5052529;28;20283;-77
2023/03/22 03:46:52;;;;;;;8.27;5.90;;;8.20;99.90;;;;;;5071813;28;20210;-77
2023/03/22 03:49:23;;;;;;;6.83;6.03;;;8.20;99.90;;;;;;5071504;28;20766;-76
2023/03/22 03:51:54;;;;;;;7.23;6.13;;;8.20;99.90;;;;;;5071362;28;20572;-77
2023/03/22 03:54:23;;;;;;;8.10;6.07;;;8.20;99.90;;;;;;5062200;28;20234;-78
2023/03/22 03:56:53;;;;;;;6.87;5.70;;;8.20;99.90;;;;;;5051529;28;20298;-77
2023/03/22 03:59:21;;;;;;;8.87;6.13;;;8.10;99.90;;;;;;5051146;28;20606;-76
2023/03/22 04:01:51;;;;;;;8.20;5.93;;;8.10;99.90;;;;;;5051016;28;20238;-78
2023/03/22 04:04:25;;;;;;;9.60;5.73;;;8.10;99.90;;;;;;5060492;28;20207;-77
2023/03/22 04:06:55;;;;;;;8.10;6.07;;;8.10;99.90;;;;;;5071566;28;20200;-76
2023/03/22 04:09:24;;;;;;;6.70;6.00;;;8.10;99.90;;;;;;5071384;28;20207;-77
2023/03/22 04:11:54;;;;;;;7.30;5.90;;;8.10;99.90;;;;;;5070899;28;20246;-78
2023/03/22 04:14:23;;;;;;;7.43;5.87;;;8.00;99.90;;;;;;5053181;28;20729;-75
2023/03/22 04:16:52;;;;;;;7.80;5.77;;;8.00;99.90;;;;;;5051340;28;20216;-75
2023/03/22 04:19:21;;;;;;;7.43;5.43;;;8.00;99.90;;;;;;5051397;28;20291;-76
2023/03/22 04:21:51;;;;;;;6.63;5.57;;;8.00;99.90;;;;;;5051175;28;20266;-77
2023/03/22 04:24:20;;;;;;;7.30;5.40;;;8.00;99.90;;;;;;5050658;28;20221;-77
2023/03/22 04:26:49;;;;;;;6.03;5.43;;;8.00;99.90;;;;;;5051330;28;20327;-77
2023/03/22 04:29:20;;;;;;;7.10;5.70;;;7.90;99.90;;;;;;5051195;28;20209;-77
2023/03/22 04:31:51;;;;;;;8.73;5.70;;;7.90;99.90;;;;;;5051698;28;20196;-76
2023/03/22 04:34:20;;;;;;;8.97;5.97;;;7.90;99.90;;;;;;5068439;28;20268;-78
2023/03/22 04:36:49;;;;;;;8.53;5.80;;;7.80;99.90;;;;;;5072507;28;20212;-77
2023/03/22 04:39:17;;;;;;;7.60;6.20;;;7.70;99.90;;;;;;5074590;28;20211;-78
2023/03/22 04:41:47;;;;;;;7.90;5.50;;;7.70;99.90;;;;;;5072677;28;20721;-76
2023/03/22 04:44:15;;;;;;;11.33;5.77;;;7.60;99.90;;;;;;5070690;28;20299;-77
2023/03/22 04:46:44;;;;;;;7.50;5.63;;;7.60;99.90;;;;;;5072737;28;20298;-76
2023/03/22 04:49:13;;;;;;;8.37;5.40;;;7.50;99.90;;;;;;5072952;28;20291;-78
2023/03/22 04:51:42;;;;;;;8.40;5.50;;;7.50;99.90;;;;;;5074512;28;20218;-77
2023/03/22 04:54:10;;;;;;;6.47;5.10;;;7.50;99.90;;;;;;5074351;28;20212;-78
2023/03/22 04:56:39;;;;;;;7.50;5.83;;;7.40;99.90;;;;;;5072807;28;20239;-78
2023/03/22 04:59:09;;;;;;;8.20;5.43;;;7.50;99.90;;;;;;5071299;28;20290;-76
2023/03/22 05:01:39;;;;;;;7.93;5.20;;;7.40;99.90;;;;;;5054478;28;20318;-78
2023/03/22 05:04:10;;;;;;;6.47;5.43;;;7.50;99.90;;;;;;5068212;28;20295;-77
2023/03/22 05:06:39;;;;;;;6.40;5.50;;;7.40;99.90;;;;;;5074507;28;20215;-76
2023/03/22 05:09:09;;;;;;;7.07;5.90;;;7.30;99.90;;;;;;5073311;28;20214;-76
2023/03/22 05:11:39;;;;;;;8.10;5.90;;;7.20;99.90;;;;;;5071842;28;20207;-77
2023/03/22 05:14:09;;;;;;;6.87;5.80;;;7.20;99.90;;;;;;5073666;28;20212;-76
2023/03/22 05:16:39;;;;;;;9.97;6.10;;;7.10;99.90;;;;;;5073921;28;20211;-76
2023/03/22 05:19:12;;;;;;;11.20;5.40;;;7.10;99.90;;;;;;5072403;28;20278;-76
2023/03/22 05:21:42;;;;;;;8.23;5.70;;;7.00;99.90;;;;;;5073700;28;20595;-75
2023/03/22 05:24:12;;;;;;;10.33;5.87;;;7.00;99.90;;;;;;5058090;28;20204;-76
2023/03/22 05:26:41;;;;;;;7.63;5.40;;;7.00;99.90;;;;;;5054976;28;20295;-77
2023/03/22 05:29:10;;;;;;;7.43;5.93;;;6.90;99.90;;;;;;5054787;28;20258;-77
2023/03/22 05:31:39;;;;;;;6.60;5.40;;;6.90;99.90;;;;;;5065296;28;20199;-79
2023/03/22 05:34:09;;;;;;;10.80;5.80;;;6.90;99.90;;;;;;5075192;28;20215;-77
2023/03/22 05:36:37;;;;;;;6.50;5.30;;;6.90;99.90;;;;;;5074841;28;20302;-76
2023/03/22 05:39:05;;;;;;;6.73;5.10;;;6.90;99.90;;;;;;5072299;28;20218;-76
2023/03/22 05:41:33;;;;;;;8.30;5.13;;;6.90;99.90;;;;;;5074355;28;20691;-76
2023/03/22 05:44:04;;;;;;;5.97;4.97;;;6.90;99.90;;;;;;5074310;28;20199;-77
2023/03/22 05:46:33;;;;;;;7.33;5.30;;;6.90;99.90;;;;;;5060288;28;20205;-77
2023/03/22 05:49:01;;;;;;;7.00;4.90;;;7.00;99.90;;;;;;5072311;28;20298;-78
2023/03/22 05:51:40;;;;;;;5.97;5.00;;;7.00;99.90;;;;;;5041956;28;20323;-76
2023/03/22 05:54:09;;;;;;;7.57;5.33;;;7.10;99.90;;;;;;5033120;28;20216;-76
2023/03/22 05:56:38;;;;;;;6.23;5.03;;;7.10;99.90;;;;;;5060566;28;20219;-77
2023/03/22 05:59:07;;;;;;;8.57;5.07;;;7.20;99.90;;;;;;5059299;28;20218;-77
2023/03/22 06:01:36;;;;;;;7.17;4.83;;;7.20;99.90;;;;;;5073177;28;20732;-77
2023/03/22 06:04:05;;;;;;;6.33;4.60;;;7.30;99.90;;;;;;5048073;28;20232;-78
2023/03/22 06:06:34;;;;;;;6.77;4.80;;;7.30;99.90;;;;;;5041285;28;20211;-77
2023/03/22 06:09:03;;;;;;;6.90;4.60;;;7.40;99.90;;;;;;5040134;28;20205;-76
2023/03/22 06:11:44;;;;;;;6.07;4.37;;;7.40;99.90;;;;;;5033110;28;20219;-77
2023/03/22 06:14:12;;;;;;;6.77;4.50;;;7.50;99.90;;;;;;5052574;28;20566;-75
2023/03/22 06:16:40;;;;;;;8.27;4.67;;;7.70;99.90;;;;;;5071117;28;20211;-77
2023/03/22 06:19:09;;;;;;;5.63;4.30;;;7.80;99.90;;;;;;5073532;28;20653;-78
2023/03/22 06:21:40;;;;;;;7.13;4.27;;;8.00;99.90;;;;;;5071137;28;20223;-75
2023/03/22 06:24:08;;;;;;;5.67;3.60;;;8.10;99.90;;;;;;5072756;28;20212;-76
2023/03/22 06:26:36;;;;;;;4.97;3.80;;;8.20;99.90;;;;;;5063063;28;20200;-78
2023/03/22 06:29:04;;;;;;;7.93;4.00;;;8.40;99.90;;;;;;5044934;28;20229;-76
2023/03/22 06:31:32;;;;;;;8.53;3.80;;;8.60;99.90;;;;;;5032584;28;20211;-78
2023/03/22 06:34:01;;;;;;;5.50;3.60;;;8.70;99.90;;;;;;5039570;28;20311;-75
2023/03/22 06:36:30;;;;;;;4.23;3.50;;;9.10;99.90;;;;;;5042730;28;20241;-75
2023/03/22 06:39:01;;;;;;;5.10;3.60;;;9.10;99.90;;;;;;5041621;28;20245;-76
2023/03/22 06:41:29;;;;;;;5.47;3.70;;;9.30;99.90;;;;;;5048980;28;20220;-76
2023/03/22 06:43:58;;;;;;;6.73;4.30;;;9.40;99.90;;;;;;5054013;28;20292;-76
2023/03/22 06:46:26;;;;;;;5.20;4.03;;;9.40;99.90;;;;;;5065082;28;20217;-76
2023/03/22 06:48:54;;;;;;;4.87;3.83;;;9.50;99.90;;;;;;5032236;28;20227;-76
2023/03/22 06:51:22;;;;;;;4.40;3.63;;;9.60;99.90;;;;;;5036251;28;20204;-76
2023/03/22 06:53:50;;;;;;;8.20;3.90;;;9.80;99.90;;;;;;5072394;28;20230;-76
2023/03/22 06:56:20;;;;;;;6.73;3.87;;;10.00;99.90;;;;;;5044562;28;20296;-76
2023/03/22 06:58:50;;;;;;;8.50;3.97;;;10.10;99.90;;;;;;5052259;28;20541;-77
2023/03/22 07:01:19;;;;;;;5.87;3.80;;;10.30;99.90;;;;;;5051386;28;20270;-75
2023/03/22 07:03:47;;;;;;;5.30;3.90;;;10.70;99.90;;;;;;5051980;28;20548;-75
2023/03/22 07:06:16;;;;;;;5.20;3.70;;;11.00;99.90;;;;;;5051708;28;20671;-77
2023/03/22 07:08:44;;;;;;;7.10;3.40;;;11.80;99.90;;;;;;5048938;28;20205;-77
2023/03/22 07:11:13;;;;;;;6.37;3.50;;;12.90;99.90;;;;;;5030755;28;20262;-77
2023/03/22 07:13:43;;;;;;;5.10;2.70;;;14.00;99.90;;;;;;5031458;28;20400;-77
2023/03/22 07:16:12;;;;;;;4.60;3.00;;;15.60;99.90;;;;;;5032232;28;20217;-75
2023/03/22 07:18:40;;;;;;;4.90;3.60;;;16.50;99.90;;;;;;5038036;28;20300;-77
2023/03/22 07:21:08;;;;;;;4.40;3.23;;;17.40;99.90;;;;;;5035882;28;20699;-77
2023/03/22 07:23:37;;;;;;;4.27;3.23;;;18.40;99.90;;;;;;5031865;28;20346;-77
2023/03/22 07:26:05;;;;;;;4.57;3.40;;;18.60;98.00;;;;;;5051069;28;20200;-76
2023/03/22 07:28:34;;;;;;;5.53;3.13;;;19.10;96.90;;;;;;5052452;28;20208;-76
2023/03/22 07:31:05;;;;;;;5.27;3.40;;;19.70;95.20;;;;;;5045589;28;20200;-77
2023/03/22 07:33:34;;;;;;;4.53;3.20;;;20.10;93.70;;;;;;5047672;28;20234;-77
2023/03/22 07:36:02;;;;;;;4.03;3.50;;;20.10;92.00;;;;;;5050964;28;20232;-77
2023/03/22 07:38:30;;;;;;;4.63;3.47;;;19.40;92.40;;;;;;5057518;28;20219;-76
2023/03/22 07:40:59;;;;;;;5.10;3.33;;;19.20;92.60;;;;;;5051314;28;20747;-78
2023/03/22 07:43:27;;;;;;;6.10;3.20;;;19.30;92.90;;;;;;5051071;28;20220;-78
2023/03/22 07:45:56;;;;;;;6.50;3.33;;;19.40;92.40;;;;;;5051205;28;20759;-78
2023/03/22 07:48:27;;;;;;;9.43;3.40;;;19.50;92.20;;;;;;5047144;28;20296;-77
2023/03/22 07:50:56;;;;;;;7.57;3.47;;;19.60;92.00;;;;;;5031434;28;20244;-78
2023/03/22 07:53:25;;;;;;;7.20;3.60;;;19.50;92.60;;;;;;5050591;28;20204;-76
2023/03/22 07:55:53;;;;;;;5.87;3.10;;;19.60;92.00;;;;;;5056961;28;20217;-77
2023/03/22 07:58:22;;;;;;;4.77;3.10;;;20.20;91.30;;;;;;5071272;28;20211;-76
2023/03/22 08:00:50;;;;;;;7.85;3.35;;;20.50;89.90;;;;;;5062236;28;20226;-77
2023/03/22 08:03:18;;;;;;;5.97;3.08;;;21.70;85.80;;;;;;5052411;28;20251;-75
2023/03/22 08:05:48;;;;;;;8.05;3.50;;;22.00;84.20;;;;;;5071264;28;20212;-77
2023/03/22 08:08:16;;;;;;;6.25;3.53;;;22.50;84.80;;;;;;5068496;28;20203;-77
2023/03/22 08:10:50;;;;;;;5.22;3.13;;;22.70;80.00;;;;;;5049892;28;20212;-76
2023/03/22 08:13:18;;;;;;;4.93;3.10;;;23.50;77.10;;;;;;5047054;28;20230;-75
2023/03/22 08:15:46;;;;;;;3.95;3.28;;;23.40;75.90;;;;;;5038081;28;20205;-76
2023/03/22 08:18:14;;;;;;;4.40;3.47;;;23.20;73.80;;;;;;5044750;28;20227;-77
2023/03/22 08:20:44;;;;;;;4.63;3.60;;;23.70;72.20;;;;;;5055135;28;20680;-76
2023/03/22 08:23:14;;;;;;;7.03;3.08;;;23.80;73.10;;;;;;5068365;28;20204;-76
2023/03/22 08:25:43;;;;;;;4.20;3.10;;;24.50;69.20;;;;;;5068549;28;20827;-75
2023/03/22 08:28:12;;;;;;;4.35;3.38;;;24.60;68.60;;;;;;5054634;28;20288;-77
2023/03/22 08:30:40;;;;;;;7.18;3.60;;;24.10;66.60;;;;;;5059091;28;20273;-78
2023/03/22 08:33:09;;;;;;;5.22;3.88;;;24.60;66.10;;;;;;5077792;28;20262;-75
2023/03/22 08:35:37;;;;;;;5.03;3.45;;;25.20;65.20;;;;;;5041156;28;20204;-77
2023/03/22 08:38:05;;;;;;;5.20;3.50;;;25.90;62.30;;;;;;5035180;28;20331;-76
2023/03/22 08:40:35;;;;;;;4.97;3.60;;;25.50;63.20;;;;;;5046375;28;20669;-77
2023/03/22 08:43:04;;;;;;;5.40;3.60;;;25.50;62.50;;;;;;5065114;28;20239;-77
2023/03/22 08:45:32;;;;;;;6.60;3.47;;;25.10;63.50;;;;;;5054596;28;20242;-76
2023/03/22 08:48:00;;;;;;;8.85;3.67;;;24.70;61.90;;;;;;5055069;28;20335;-77
2023/03/22 08:50:29;;;;;;;4.40;3.35;;;24.80;63.40;;;;;;5071388;28;20706;-75
2023/03/22 08:52:59;;;;;;;6.63;3.90;;;24.40;62.40;;;;;;5054176;28;20260;-76
2023/03/22 08:55:27;;;;;;;5.50;3.58;;;24.80;62.20;;;;;;5054748;28;20208;-78
2023/03/22 08:57:57;;;;;;;7.35;3.78;;;25.00;61.50;;;;;;5053482;28;20666;-77
2023/03/22 09:00:26;;;;;;;6.90;3.80;;;25.20;61.50;;;;;;5053527;28;20586;-77
2023/03/22 09:03:12;;;;;;;5.35;3.58;;;24.70;61.90;;;;;;5049305;28;20204;-76
2023/03/22 09:05:40;;;;;;;5.65;3.63;;;25.30;60.40;;;;;;5056548;28;20212;-76
2023/03/22 09:08:09;;;;;;;6.03;3.42;;;26.40;59.50;;;;;;5064471;28;20244;-75
2023/03/22 09:10:46;;;;;;;6.60;3.83;;;26.70;58.00;;;;;;5048219;28;20330;-76
2023/03/22 09:13:16;;;;;;;6.07;3.60;;;26.90;57.00;;;;;;5057633;28;20295;-76
2023/03/22 09:15:44;;;;;;;6.00;3.10;;;27.20;56.50;;;;;;5058070;28;20208;-75
2023/03/22 09:18:13;;;;;;;6.05;3.20;;;26.50;58.50;;;;;;5066376;28;20204;-77
2023/03/22 09:20:42;;;;;;;4.07;3.20;;;26.30;58.50;;;;;;5058105;28;20219;-76
2023/03/22 09:23:10;;;;;;;5.63;3.30;;;27.20;56.50;;;;;;5053942;28;20208;-77
2023/03/22 09:25:42;;;;;;;5.97;3.40;;;26.90;56.40;;;;;;5055188;28;20236;-78
2023/03/22 09:28:11;;;;;;;5.65;3.30;;;27.00;55.70;;;;;;5055392;28;20653;-76
2023/03/22 09:30:40;;;;;;;4.85;3.40;;;27.00;56.20;;;;;;5066228;28;20215;-77
2023/03/22 09:33:09;;;;;;;6.22;3.47;;;26.30;57.50;;;;;;5059888;28;20224;-76
2023/03/22 09:35:41;;;;;;;4.60;3.53;;;27.40;56.80;;;;;;5034843;28;20209;-74
2023/03/22 09:38:11;;;;;;;5.90;3.92;;;26.50;57.00;;;;;;5034599;28;20300;-75
2023/03/22 09:40:49;;;;;;;6.05;3.80;;;26.20;57.60;;;;;;5034233;28;20729;-78
2023/03/22 09:43:19;;;;;;;4.07;3.55;;;26.50;56.20;;;;;;5047653;28;20307;-76
2023/03/22 09:45:50;;;;;;;4.18;3.50;;;26.20;56.80;;;;;;5053588;28;20216;-78
2023/03/22 09:48:22;;;;;;;7.40;4.40;;;26.70;57.20;;;;;;5052334;28;20218;-77
2023/03/22 09:50:54;;;;;;;4.90;3.65;;;26.50;57.10;;;;;;5053691;28;20218;-76
2023/03/22 09:53:26;;;;;;;5.65;3.78;;;26.80;55.90;;;;;;5053256;28;20216;-77
2023/03/22 09:56:00;;;;;;;7.35;3.65;;;26.60;55.40;;;;;;5053582;28;20192;-75
2023/03/22 09:58:35;;;;;;;6.45;4.07;;;27.60;54.20;;;;;;5052588;28;20208;-78
2023/03/22 10:01:14;;;;;;;4.47;4.00;;;28.10;53.50;;;;;;5061742;28;20214;-77
2023/03/22 10:04:14;;;;;;;5.60;3.58;;;27.60;53.10;;;;;;5072934;28;20188;-76
2023/03/22 10:06:46;;;;;;;4.38;3.90;;;27.50;53.40;;;;;;5055505;28;20204;-77
2023/03/22 10:09:21;;;;;;;4.90;3.63;;;27.70;53.20;;;;;;5070156;28;20214;-77
2023/03/22 10:11:54;;;;;;;4.32;3.40;;;27.90;53.90;;;;;;5072075;28;20569;-74
2023/03/22 10:14:31;;;;;;;4.20;3.47;;;28.30;51.30;;;;;;5072499;28;20783;-77
2023/03/22 10:17:04;;;;;;;3.95;3.63;;;28.90;50.50;;;;;;5072385;28;20207;-76
2023/03/22 10:19:36;;;;;;;4.75;3.45;;;27.70;50.60;;;;;;5070461;28;20652;-76
2023/03/22 10:22:07;;;;;;;5.43;3.20;;;27.90;50.00;;;;;;5072418;28;20222;-76
2023/03/22 10:24:39;;;;;;;5.57;3.63;;;27.80;51.30;;;;;;5073497;28;20473;-77
2023/03/22 10:27:15;;;;;;;7.78;3.60;;;28.10;50.40;;;;;;5071351;28;20657;-77
2023/03/22 10:29:47;;;;;;;3.97;3.42;;;26.90;52.50;;;;;;5073216;28;20207;-77
2023/03/22 10:32:18;;;;;;;5.53;3.65;;;27.60;51.10;;;;;;5073012;28;20669;-76
2023/03/22 10:34:48;;;;;;;4.93;3.22;;;26.50;51.70;;;;;;5074954;28;20243;-76
2023/03/22 10:37:20;;;;;;;5.18;3.08;;;27.30;52.00;;;;;;5056588;28;20266;-76
2023/03/22 10:39:52;;;;;;;3.90;3.13;;;27.30;50.50;;;;;;5052594;28;20236;-77
2023/03/22 10:42:23;;;;;;;6.03;3.00;;;27.20;50.90;;;;;;5052297;28;20223;-77
2023/03/22 10:44:57;;;;;;;4.53;3.33;;;27.50;50.50;;;;;;5053340;28;20674;-77
2023/03/22 10:47:34;;;;;;;3.53;3.20;;;27.40;50.20;;;;;;5071846;28;20311;-76
2023/03/22 10:50:06;;;;;;;4.88;3.50;;;27.60;50.70;;;;;;5072488;28;20250;-76
2023/03/22 10:52:42;;;;;;;4.45;3.25;;;27.80;50.40;;;;;;5053047;28;20253;-75
2023/03/22 10:55:13;;;;;;;6.53;3.20;;;27.10;49.80;;;;;;5068110;28;20247;-77
2023/03/22 10:57:43;;;;;;;3.20;2.90;;;27.10;51.10;;;;;;5072138;28;20236;-76
2023/03/22 11:00:16;;;;;;;5.35;2.90;;;27.60;50.80;;;;;;5072085;28;20277;-75
2023/03/22 11:02:51;;;;;;;3.10;2.75;;;27.10;50.30;;;;;;5069602;28;20208;-75
2023/03/22 11:05:23;;;;;;;3.33;3.03;;;27.10;50.50;;;;;;5072196;28;20191;-76
2023/03/22 11:07:51;;;;;;;3.10;2.63;;;27.10;50.50;;;;;;5072340;28;20192;-76
2023/03/22 11:10:23;;;;;;;4.78;3.00;;;27.20;50.40;;;;;;5072104;28;20210;-76
2023/03/22 11:12:54;;;;;;;5.22;3.05;;;27.60;48.60;;;;;;5070707;28;20294;-75
2023/03/22 11:15:26;;;;;;;4.13;3.17;;;27.10;50.40;;;;;;5072382;28;20215;-75
2023/03/22 11:18:00;;;;;;;3.72;2.90;;;27.30;49.40;;;;;;5071828;28;20682;-76
2023/03/22 11:20:29;;;;;;;4.15;2.78;;;27.40;48.50;;;;;;5070485;28;20324;-77
2023/03/22 11:23:01;;;;;;;4.13;2.78;;;27.10;49.90;;;;;;5071374;28;20203;-77
2023/03/22 11:25:31;;;;;;;5.88;2.80;;;26.40;52.20;;;;;;5071944;28;20199;-77
2023/03/22 11:28:09;;;;;;;5.43;2.60;;;26.40;52.20;;;;;;5070046;28;20218;-76
2023/03/22 11:30:38;;;;;;;4.15;3.00;;;26.50;50.10;;;;;;5071934;28;20213;-77
2023/03/22 11:33:17;;;;;;;3.97;3.10;;;26.00;49.70;;;;;;5071691;28;20277;-76
2023/03/22 11:35:47;;;;;;;3.88;3.13;;;26.30;49.50;;;;;;5070001;28;20202;-77
2023/03/22 11:38:37;;;;;;;5.47;2.78;;;25.40;50.70;;;;;;5071819;28;20261;-77
2023/03/22 11:41:09;;;;;;;3.50;2.30;;;25.50;50.80;;;;;;5071798;28;20246;-76
2023/03/22 11:43:41;;;;;;;4.68;2.65;;;26.10;51.80;;;;;;5071980;28;20232;-76
2023/03/22 11:46:09;;;;;;;3.80;2.53;;;26.10;51.00;;;;;;5072629;28;20619;-77
2023/03/22 11:48:41;;;;;;;3.38;2.60;;;25.40;52.70;;;;;;5075967;28;20767;-77
2023/03/22 11:51:12;;;;;;;3.17;2.60;;;24.70;51.60;;;;;;5066403;28;20211;-75
2023/03/22 11:53:43;;;;;;;2.60;2.15;;;25.30;52.20;;;;;;5069325;28;20307;-76
2023/03/22 11:56:15;;;;;;;2.90;2.40;;;25.30;52.40;;;;;;5055854;28;20266;-76
2023/03/22 11:58:58;;;;;;;2.60;2.20;;;25.00;52.10;;;;;;5055472;28;20692;-75
2023/03/22 12:01:37;;;;;;;3.75;2.50;;;25.00;52.10;;;;;;5074462;28;20217;-78
2023/03/22 12:04:13;;;;;;;2.67;2.43;;;24.00;53.50;;;;;;5075383;28;20187;-76
2023/03/22 12:06:42;;;;;;;4.63;2.47;;;23.50;54.60;;;;;;5075537;28;20278;-77
2023/03/22 12:09:25;;;;;;;3.70;2.40;;;23.80;54.70;;;;;;5073553;28;20658;-76
2023/03/22 12:11:57;;;;;;;3.27;2.57;;;23.50;54.10;;;;;;5075660;28;20304;-76
2023/03/22 12:14:28;;;;;;;3.40;2.30;;;23.50;54.10;;;;;;5075103;28;20227;-77
2023/03/22 12:17:01;;;;;;;4.93;2.70;;;23.40;55.30;;;;;;5075863;28;20192;-77
2023/03/22 12:19:52;;;;;;;2.87;2.27;;;22.90;53.80;;;;;;5075660;28;20230;-76
2023/03/22 12:22:27;;;;;;;4.90;2.60;;;22.70;55.30;;;;;;5074943;28;20247;-75
2023/03/22 12:24:55;;;;;;;3.67;2.60;;;22.70;55.30;;;;;;5066551;28;20207;-75
2023/03/22 12:27:29;;;;;;;3.27;2.80;;;22.20;56.10;;;;;;5055003;28;20212;-76
2023/03/22 12:30:00;;;;;;;3.97;2.67;;;22.50;57.00;;;;;;5055093;28;20311;-77
2023/03/22 12:32:35;;;;;;;6.00;2.57;;;22.20;56.00;;;;;;5061944;28;20234;-76
2023/03/22 12:35:07;;;;;;;3.93;2.77;;;22.30;56.70;;;;;;5074862;28;20219;-76
2023/03/22 12:37:48;;;;;;;2.93;2.10;;;22.40;55.80;;;;;;5075205;28;20199;-77
2023/03/22 12:40:22;;;;;;;3.53;2.40;;;22.60;56.70;;;;;;5074831;28;20637;-76
2023/03/22 12:43:00;;;;;;;2.67;2.30;;;22.20;55.20;;;;;;5073130;28;20268;-77
2023/03/22 12:45:30;;;;;;;3.67;2.37;;;22.30;56.60;;;;;;5073542;28;20298;-75
2023/03/22 12:48:05;;;;;;;3.73;2.60;;;22.30;55.60;;;;;;5071601;28;20595;-75
2023/03/22 12:50:43;;;;;;;3.27;2.80;;;22.30;55.50;;;;;;5054705;28;20225;-75
2023/03/22 12:53:15;;;;;;;3.40;2.80;;;22.20;55.50;;;;;;5053469;28;20212;-75
2023/03/22 12:55:45;;;;;;;3.67;2.60;;;22.20;55.10;;;;;;5054552;28;20705;-76
2023/03/22 12:58:18;;;;;;;3.97;2.70;;;22.30;56.60;;;;;;5054377;28;20192;-75
2023/03/22 13:00:51;;;;;;;3.03;2.43;;;22.20;55.80;;;;;;5054623;28;20212;-75
2023/03/22 13:03:26;;;;;;;4.17;3.07;;;22.30;56.30;;;;;;5053529;28;20208;-75
2023/03/22 13:06:06;;;;;;;6.40;2.87;;;21.90;55.40;;;;;;5054491;28;20254;-76
2023/03/22 13:09:11;;;;;;;4.33;2.87;;;21.70;55.70;;;;;;5054240;28;20666;-76
2023/03/22 13:11:40;;;;;;;5.43;2.67;;;21.90;55.70;;;;;;5065601;28;20207;-75
2023/03/22 13:14:12;;;;;;;5.97;2.67;;;22.00;56.20;;;;;;5071672;28;20207;-75